createdAt,value
2018-07-21T00:01:57.081Z,100720.38
2018-07-21T00:04:25.755Z,100721.33
2018-07-21T00:06:54.015Z,100716.42
2018-07-21T00:09:22.515Z,100706.41
2018-07-21T00:11:50.885Z,100717.56
2018-07-21T00:14:19.165Z,100712.61
2018-07-21T00:16:47.442Z,100718.70
2018-07-21T00:19:15.713Z,100719.88
2018-07-21T00:21:44.206Z,100727.23
2018-07-21T00:24:12.500Z,100718.48
2018-07-21T00:26:46.087Z,100717.25
2018-07-21T00:29:14.355Z,100721.80
2018-07-21T00:31:42.941Z,100720.39
2018-07-21T00:34:11.243Z,100722.83
2018-07-21T00:36:40.025Z,100719.61
2018-07-21T00:39:11.117Z,100719.80
2018-07-21T00:41:39.514Z,100712.70
2018-07-21T00:44:08.055Z,100718.61
2018-07-21T00:46:36.602Z,100723.26
2018-07-21T00:49:05.525Z,100715.36
2018-07-21T00:51:33.814Z,100729.03
2018-07-21T00:54:02.423Z,100715.28
2018-07-21T00:56:30.668Z,100720.10
2018-07-21T00:58:59.161Z,100721.99
2018-07-21T01:01:27.425Z,100726.95
2018-07-21T01:03:55.768Z,100734.02
2018-07-21T01:06:24.051Z,100729.03
2018-07-21T01:08:52.373Z,100735.34
2018-07-21T01:11:20.702Z,100738.80
2018-07-21T01:13:49.041Z,100736.48
2018-07-21T01:16:18.089Z,100744.61
2018-07-21T01:18:46.455Z,100742.77
2018-07-21T01:21:14.777Z,100737.96
2018-07-21T01:23:43.104Z,100741.57
2018-07-21T01:26:11.397Z,100740.56
2018-07-21T01:28:39.848Z,100736.69
2018-07-21T01:31:08.108Z,100737.30
2018-07-21T01:33:36.384Z,100727.97
2018-07-21T01:36:04.751Z,100730.75
2018-07-21T01:38:33.431Z,100735.61
2018-07-21T01:41:01.694Z,100734.30
2018-07-21T01:43:29.934Z,100732.56
2018-07-21T01:45:58.272Z,100727.13
2018-07-21T01:48:26.529Z,100727.04
2018-07-21T01:50:54.823Z,100717.48
2018-07-21T01:53:23.106Z,100715.81
2018-07-21T01:55:51.467Z,100716.39
2018-07-21T01:58:19.754Z,100711.48
2018-07-21T02:00:48.103Z,100711.72
2018-07-21T02:03:16.381Z,100701.56
2018-07-21T02:05:44.642Z,100683.72
2018-07-21T02:08:12.947Z,100681.41
2018-07-21T02:10:41.315Z,100679.64
2018-07-21T02:13:09.583Z,100679.23
2018-07-21T02:15:37.823Z,100680.48
2018-07-21T02:18:06.453Z,100688.33
2018-07-21T02:20:34.733Z,100688.55
2018-07-21T02:23:03.075Z,100688.89
2018-07-21T02:25:31.433Z,100692.43
2018-07-21T02:27:59.716Z,100685.89
2018-07-21T02:30:28.078Z,100690.78
2018-07-21T02:32:56.418Z,100685.55
2018-07-21T02:35:24.751Z,100682.26
2018-07-21T02:37:53.074Z,100679.30
2018-07-21T02:40:21.335Z,100681.77
2018-07-21T02:42:49.591Z,100689.92
2018-07-21T02:45:17.887Z,100691.50
2018-07-21T02:47:46.196Z,100692.34
2018-07-21T02:50:14.459Z,100693.45
2018-07-21T02:52:42.774Z,100683.63
2018-07-21T02:55:11.097Z,100690.94
2018-07-21T02:57:39.440Z,100695.86
2018-07-21T03:00:07.772Z,100696.66
2018-07-21T03:02:36.045Z,100699.39
2018-07-21T03:05:04.338Z,100705.48
2018-07-21T03:07:32.672Z,100701.94
2018-07-21T03:10:01.009Z,100702.20
2018-07-21T03:12:29.306Z,100699.53
2018-07-21T03:14:57.612Z,100693.55
2018-07-21T03:17:25.854Z,100690.76
2018-07-21T03:19:54.144Z,100692.17
2018-07-21T03:22:22.469Z,100699.34
2018-07-21T03:24:50.739Z,100696.61
2018-07-21T03:27:19.108Z,100701.55
2018-07-21T03:29:47.353Z,100700.44
2018-07-21T03:32:15.644Z,100699.38
2018-07-21T03:34:43.923Z,100696.12
2018-07-21T03:37:12.214Z,100698.03
2018-07-21T03:39:40.547Z,100701.63
2018-07-21T03:42:08.892Z,100706.20
2018-07-21T03:44:37.183Z,100702.63
2018-07-21T03:47:05.440Z,100707.83
2018-07-21T03:49:33.735Z,100704.30
2018-07-21T03:52:02.037Z,100698.54
2018-07-21T03:54:30.275Z,100697.13
2018-07-21T03:56:58.569Z,100693.30
2018-07-21T03:59:26.819Z,100686.47
2018-07-21T04:01:55.096Z,100686.72
2018-07-21T04:04:23.367Z,100681.75
2018-07-21T04:06:51.633Z,100681.80
2018-07-21T04:09:19.881Z,100682.61
2018-07-21T04:11:48.193Z,100677.90
2018-07-21T04:14:16.916Z,100679.42
2018-07-21T04:16:45.226Z,100675.86
2018-07-21T04:19:13.469Z,100672.38
2018-07-21T04:21:41.761Z,100677.84
2018-07-21T04:24:10.095Z,100670.46
2018-07-21T04:26:38.378Z,100673.96
2018-07-21T04:29:06.715Z,100670.72
2018-07-21T04:31:34.959Z,100667.66
2018-07-21T04:34:03.281Z,100669.87
2018-07-21T04:36:31.652Z,100665.76
2018-07-21T04:38:59.964Z,100664.34
2018-07-21T04:41:28.353Z,100655.66
2018-07-21T04:43:56.624Z,100654.62
2018-07-21T04:46:24.910Z,100647.22
2018-07-21T04:48:53.174Z,100650.70
2018-07-21T04:51:21.469Z,100646.63
2018-07-21T04:53:49.823Z,100651.53
2018-07-21T04:56:18.109Z,100645.48
2018-07-21T04:58:46.353Z,100650.39
2018-07-21T05:01:14.636Z,100650.04
2018-07-21T05:03:42.928Z,100651.75
2018-07-21T05:06:11.180Z,100650.89
2018-07-21T05:08:39.485Z,100657.69
2018-07-21T05:11:07.764Z,100661.07
2018-07-21T05:13:36.049Z,100669.25
2018-07-21T05:16:04.345Z,100671.39
2018-07-21T05:18:32.620Z,100669.44
2018-07-21T05:21:00.904Z,100671.09
2018-07-21T05:23:29.332Z,100675.48
2018-07-21T05:25:57.618Z,100681.37
2018-07-21T05:28:25.863Z,100683.34
2018-07-21T05:30:54.148Z,100688.70
2018-07-21T05:33:22.457Z,100686.53
2018-07-21T05:35:50.716Z,100691.11
2018-07-21T05:38:18.973Z,100692.81
2018-07-21T05:40:47.250Z,100689.77
2018-07-21T05:43:15.633Z,100695.88
2018-07-21T05:45:43.936Z,100699.72
2018-07-21T05:48:12.193Z,100695.23
2018-07-21T05:50:41.680Z,100703.48
2018-07-21T05:53:09.983Z,100705.30
2018-07-21T05:55:38.251Z,100699.42
2018-07-21T05:58:06.557Z,100708.88
2018-07-21T06:00:36.464Z,100701.16
2018-07-21T06:03:04.802Z,100702.30
2018-07-21T06:05:33.069Z,100709.14
2018-07-21T06:08:01.321Z,100711.84
2018-07-21T06:10:29.822Z,100714.53
2018-07-21T06:12:58.120Z,100717.36
2018-07-21T06:15:26.460Z,100723.78
2018-07-21T06:17:54.786Z,100720.58
2018-07-21T06:20:23.094Z,100728.64
2018-07-21T06:22:51.391Z,100733.34
2018-07-21T06:25:19.849Z,100740.98
2018-07-21T06:27:48.059Z,100741.83
2018-07-21T06:30:16.331Z,100748.53
2018-07-21T06:32:44.633Z,100745.02
2018-07-21T06:35:12.986Z,100750.23
2018-07-21T06:37:41.297Z,100748.70
2018-07-21T06:40:09.647Z,100744.42
2018-07-21T06:42:37.934Z,100755.80
2018-07-21T06:45:06.203Z,100762.34
2018-07-21T06:47:34.504Z,100761.37
2018-07-21T06:50:03.114Z,100764.84
2018-07-21T06:52:31.381Z,100772.13
2018-07-21T06:54:59.708Z,100772.10
2018-07-21T06:57:27.956Z,100772.22
2018-07-21T06:59:56.371Z,100778.89
2018-07-21T07:02:24.677Z,100781.86
2018-07-21T07:04:52.949Z,100785.06
2018-07-21T07:07:21.371Z,100788.70
2018-07-21T07:09:49.726Z,100785.41
2018-07-21T07:12:17.986Z,100786.27
2018-07-21T07:14:46.273Z,100791.09
2018-07-21T07:17:14.584Z,100787.17
2018-07-21T07:19:42.896Z,100784.90
2018-07-21T07:22:11.146Z,100787.38
2018-07-21T07:24:39.540Z,100787.14
2018-07-21T07:27:07.853Z,100787.18
2018-07-21T07:29:36.081Z,100784.80
2018-07-21T07:32:04.386Z,100790.63
2018-07-21T07:34:32.686Z,100782.78
2018-07-21T07:37:01.392Z,100777.49
2018-07-21T07:39:29.679Z,100791.47
2018-07-21T07:41:57.931Z,100794.34
2018-07-21T07:44:26.228Z,100796.58
2018-07-21T07:46:54.537Z,100799.94
2018-07-21T07:49:22.841Z,100797.36
2018-07-21T07:51:51.171Z,100801.66
2018-07-21T07:54:20.350Z,100795.70
2018-07-21T07:56:48.659Z,100795.80
2018-07-21T07:59:16.920Z,100801.08
2018-07-21T08:01:45.202Z,100799.61
2018-07-21T08:04:13.488Z,100797.92
2018-07-21T08:06:41.736Z,100790.67
2018-07-21T08:09:11.967Z,100785.09
2018-07-21T08:11:40.525Z,100792.44
2018-07-21T08:14:08.807Z,100796.47
2018-07-21T08:16:37.082Z,100783.47
2018-07-21T08:19:06.172Z,100780.44
2018-07-21T08:21:34.574Z,100780.41
2018-07-21T08:24:02.901Z,100781.31
2018-07-21T08:26:31.214Z,100779.56
2018-07-21T08:28:59.550Z,100784.48
2018-07-21T08:31:27.857Z,100779.19
2018-07-21T08:33:56.316Z,100777.31
2018-07-21T08:36:24.567Z,100771.30
2018-07-21T08:38:52.833Z,100764.84
2018-07-21T08:41:21.138Z,100769.61
2018-07-21T08:43:49.418Z,100765.13
2018-07-21T08:46:17.780Z,100762.38
2018-07-21T08:48:46.125Z,100761.17
2018-07-21T08:51:14.518Z,100756.16
2018-07-21T08:53:42.879Z,100759.67
2018-07-21T08:56:11.237Z,100764.95
2018-07-21T08:58:39.574Z,100764.92
2018-07-21T09:01:07.862Z,100767.20
2018-07-21T09:03:36.169Z,100765.89
2018-07-21T09:06:04.437Z,100762.98
2018-07-21T09:08:32.731Z,100767.84
2018-07-21T09:11:00.992Z,100766.69
2018-07-21T09:13:29.362Z,100775.88
2018-07-21T09:15:57.605Z,100775.30
2018-07-21T09:18:25.846Z,100775.86
2018-07-21T09:20:54.194Z,100766.34
2018-07-21T09:23:22.521Z,100766.77
2018-07-21T09:25:50.838Z,100769.09
2018-07-21T09:28:19.132Z,100766.41
2018-07-21T09:30:47.387Z,100765.28
2018-07-21T09:33:15.668Z,100769.36
2018-07-21T09:35:44.230Z,100768.44
2018-07-21T09:38:12.507Z,100763.77
2018-07-21T09:40:40.763Z,100771.95
2018-07-21T09:43:14.696Z,100764.27
2018-07-21T09:45:42.989Z,100759.78
2018-07-21T09:48:11.266Z,100766.86
2018-07-21T09:50:39.588Z,100770.39
2018-07-21T09:53:07.832Z,100764.30
2018-07-21T09:55:36.191Z,100764.28
2018-07-21T09:58:04.443Z,100764.64
2018-07-21T10:00:38.051Z,100760.34
2018-07-21T10:03:06.604Z,100756.10
2018-07-21T10:05:34.900Z,100750.25
2018-07-21T10:08:03.413Z,100755.02
2018-07-21T10:10:31.733Z,100757.83
2018-07-21T10:13:00.037Z,100756.41
2018-07-21T10:15:28.451Z,100757.58
2018-07-21T10:17:56.757Z,100762.83
2018-07-21T10:20:25.060Z,100762.01
2018-07-21T10:22:53.384Z,100760.05
2018-07-21T10:25:27.084Z,100766.14
2018-07-21T10:28:00.711Z,100758.66
2018-07-21T10:30:29.007Z,100762.73
2018-07-21T10:32:57.289Z,100769.56
2018-07-21T10:35:25.575Z,100766.67
2018-07-21T10:37:53.861Z,100770.25
2018-07-21T10:40:22.122Z,100765.11
2018-07-21T10:42:50.419Z,100769.27
2018-07-21T10:45:18.750Z,100761.06
2018-07-21T10:47:47.007Z,100768.80
2018-07-21T10:50:15.642Z,100765.41
2018-07-21T10:52:43.886Z,100766.03
2018-07-21T10:55:12.466Z,100764.08
2018-07-21T10:57:40.743Z,100759.02
2018-07-21T11:00:09.187Z,100756.44
2018-07-21T11:02:37.472Z,100752.45
2018-07-21T11:05:06.699Z,100752.53
2018-07-21T11:07:35.024Z,100753.34
2018-07-21T11:10:03.443Z,100759.63
2018-07-21T11:12:31.746Z,100755.70
2018-07-21T11:15:00.010Z,100758.97
2018-07-21T11:17:28.263Z,100754.86
2018-07-21T11:19:56.618Z,100750.60
2018-07-21T11:22:24.916Z,100745.19
2018-07-21T11:24:53.299Z,100747.05
2018-07-21T11:27:21.590Z,100743.49
2018-07-21T11:29:49.830Z,100748.92
2018-07-21T11:32:18.084Z,100743.34
2018-07-21T11:34:46.403Z,100747.87
2018-07-21T11:37:14.678Z,100748.05
2018-07-21T11:39:43.210Z,100752.37
2018-07-21T11:42:11.484Z,100752.94
2018-07-21T11:44:39.761Z,100749.84
2018-07-21T11:47:08.114Z,100746.27
2018-07-21T11:49:36.377Z,100740.22
2018-07-21T11:52:04.886Z,100738.25
2018-07-21T11:54:33.233Z,100746.47
2018-07-21T11:57:02.541Z,100731.84
2018-07-21T11:59:32.032Z,100729.33
2018-07-21T12:02:00.324Z,100728.69
2018-07-21T12:04:29.532Z,100730.16
2018-07-21T12:06:57.851Z,100725.30
2018-07-21T12:09:26.338Z,100722.78
2018-07-21T12:11:55.039Z,100725.88
2018-07-21T12:14:23.503Z,100725.81
2018-07-21T12:16:51.806Z,100728.30
2018-07-21T12:19:20.092Z,100718.97
2018-07-21T12:21:48.403Z,100722.94
2018-07-21T12:24:16.687Z,100719.23
2018-07-21T12:26:44.941Z,100719.88
2018-07-21T12:29:13.305Z,100715.00
2018-07-21T12:31:41.580Z,100709.61
2018-07-21T12:34:09.941Z,100709.41
2018-07-21T12:36:38.436Z,100711.09
2018-07-21T12:39:08.420Z,100709.36
2018-07-21T12:41:36.779Z,100704.80
2018-07-21T12:44:05.133Z,100703.45
2018-07-21T12:46:33.428Z,100706.64
2018-07-21T12:49:01.896Z,100705.17
2018-07-21T12:51:30.194Z,100706.93
2018-07-21T12:53:58.475Z,100703.91
2018-07-21T12:56:26.774Z,100711.36
2018-07-21T12:58:55.054Z,100711.86
2018-07-21T13:01:23.411Z,100715.05
2018-07-21T13:03:51.705Z,100709.13
2018-07-21T13:06:20.002Z,100710.89
2018-07-21T13:08:48.246Z,100698.60
2018-07-21T13:11:16.601Z,100713.97
2018-07-21T13:13:44.898Z,100711.37
2018-07-21T13:16:13.209Z,100711.37
2018-07-21T13:18:41.543Z,100714.83
2018-07-21T13:21:09.894Z,100712.88
2018-07-21T13:23:38.205Z,100713.55
2018-07-21T13:26:06.629Z,100709.82
2018-07-21T13:28:34.948Z,100717.28
2018-07-21T13:31:03.294Z,100718.13
2018-07-21T13:33:31.614Z,100711.73
2018-07-21T13:35:59.928Z,100706.78
2018-07-21T13:38:28.277Z,100696.61
2018-07-21T13:40:56.574Z,100694.82
2018-07-21T13:43:25.007Z,100701.87
2018-07-21T13:45:53.335Z,100698.99
2018-07-21T13:48:21.632Z,100700.86
2018-07-21T13:50:49.873Z,100695.64
2018-07-21T13:53:18.697Z,100706.59
2018-07-21T13:55:46.971Z,100706.38
2018-07-21T13:58:15.254Z,100704.80
2018-07-21T14:00:43.563Z,100702.61
2018-07-21T14:03:11.827Z,100701.02
2018-07-21T14:05:40.213Z,100694.53
2018-07-21T14:08:08.566Z,100698.20
2018-07-21T14:10:36.850Z,100694.77
2018-07-21T14:13:05.173Z,100696.31
2018-07-21T14:15:33.465Z,100693.91
2018-07-21T14:18:01.817Z,100696.39
2018-07-21T14:20:30.229Z,100689.71
2018-07-21T14:22:58.703Z,100692.48
2018-07-21T14:25:27.011Z,100687.23
2018-07-21T14:27:55.313Z,100688.00
2018-07-21T14:30:23.598Z,100692.18
2018-07-21T14:32:51.882Z,100691.34
2018-07-21T14:35:20.223Z,100681.70
2018-07-21T14:37:48.692Z,100681.19
2018-07-21T14:40:17.014Z,100673.78
2018-07-21T14:42:45.344Z,100673.17
2018-07-21T14:45:13.582Z,100687.34
2018-07-21T14:47:41.910Z,100680.27
2018-07-21T14:50:10.156Z,100674.65
2018-07-21T14:52:38.503Z,100681.79
2018-07-21T14:55:06.898Z,100682.66
2018-07-21T14:57:35.144Z,100688.75
2018-07-21T15:00:03.662Z,100685.23
2018-07-21T15:02:31.896Z,100680.65
2018-07-21T15:05:00.179Z,100679.31
2018-07-21T15:07:28.438Z,100676.23
2018-07-21T15:09:56.722Z,100680.41
2018-07-21T15:12:25.029Z,100686.79
2018-07-21T15:14:53.331Z,100688.59
2018-07-21T15:17:21.607Z,100689.91
2018-07-21T15:19:50.101Z,100689.23
2018-07-21T15:22:18.361Z,100685.98
2018-07-21T15:24:46.718Z,100681.64
2018-07-21T15:27:15.271Z,100685.59
2018-07-21T15:29:43.576Z,100677.90
2018-07-21T15:32:12.140Z,100688.72
2018-07-21T15:34:40.437Z,100685.30
2018-07-21T15:37:08.845Z,100686.97
2018-07-21T15:39:37.208Z,100694.45
2018-07-21T15:42:05.517Z,100695.41
2018-07-21T15:44:33.839Z,100688.56
2018-07-21T15:47:02.145Z,100695.09
2018-07-21T15:49:30.507Z,100699.33
2018-07-21T15:51:58.841Z,100692.65
2018-07-21T15:54:27.559Z,100702.06
2018-07-21T15:56:55.923Z,100698.53
2018-07-21T15:59:24.279Z,100693.58
2018-07-21T16:01:52.556Z,100696.98
2018-07-21T16:04:20.858Z,100701.61
2018-07-21T16:06:49.168Z,100706.28
2018-07-21T16:09:17.575Z,100704.83
2018-07-21T16:11:45.932Z,100700.04
2018-07-21T16:14:14.507Z,100705.45
2018-07-21T16:16:42.856Z,100711.56
2018-07-21T16:19:11.470Z,100710.95
2018-07-21T16:21:39.804Z,100705.03
2018-07-21T16:24:08.098Z,100698.59
2018-07-21T16:26:36.487Z,100694.84
2018-07-21T16:29:04.848Z,100701.11
2018-07-21T16:31:33.253Z,100695.84
2018-07-21T16:34:01.499Z,100701.20
2018-07-21T16:36:29.745Z,100705.56
2018-07-21T16:38:58.055Z,100705.37
2018-07-21T16:41:26.329Z,100695.11
2018-07-21T16:43:54.629Z,100699.27
2018-07-21T16:46:22.972Z,100693.75
2018-07-21T16:48:51.235Z,100690.65
2018-07-21T16:51:19.506Z,100687.56
2018-07-21T16:53:47.955Z,100683.97
2018-07-21T16:56:16.251Z,100684.75
2018-07-21T16:58:44.712Z,100683.45
2018-07-21T17:01:13.025Z,100685.98
2018-07-21T17:03:41.333Z,100692.98
2018-07-21T17:06:09.622Z,100681.22
2018-07-21T17:08:37.901Z,100683.41
2018-07-21T17:11:06.392Z,100685.39
2018-07-21T17:13:35.086Z,100695.55
2018-07-21T17:16:03.712Z,100692.33
2018-07-21T17:18:32.062Z,100692.61
2018-07-21T17:21:00.625Z,100688.24
2018-07-21T17:23:28.939Z,100695.94
2018-07-21T17:25:57.211Z,100689.33
2018-07-21T17:28:25.663Z,100701.02
2018-07-21T17:30:53.929Z,100699.43
2018-07-21T17:33:22.233Z,100697.83
2018-07-21T17:35:50.574Z,100692.64
2018-07-21T17:38:18.851Z,100695.06
2018-07-21T17:40:47.170Z,100693.36
2018-07-21T17:43:15.499Z,100690.12
2018-07-21T17:45:43.780Z,100692.65
2018-07-21T17:48:12.118Z,100693.81
2018-07-21T17:50:40.460Z,100696.71
2018-07-21T17:53:08.771Z,100688.56
2018-07-21T17:55:37.037Z,100689.72
2018-07-21T17:58:05.673Z,100691.70
2018-07-21T18:00:33.945Z,100691.23
2018-07-21T18:03:02.244Z,100694.81
2018-07-21T18:05:30.620Z,100689.73
2018-07-21T18:07:58.974Z,100688.58
2018-07-21T18:10:27.363Z,100691.41
2018-07-21T18:12:55.769Z,100693.49
2018-07-21T18:15:24.032Z,100695.91
2018-07-21T18:17:52.481Z,100695.45
2018-07-21T18:20:20.847Z,100694.61
2018-07-21T18:22:49.121Z,100698.79
2018-07-21T18:25:17.626Z,100701.41
2018-07-21T18:27:46.119Z,100710.98
2018-07-21T18:30:14.644Z,100719.66
2018-07-21T18:32:42.883Z,100715.92
2018-07-21T18:35:11.148Z,100715.98
2018-07-21T18:37:40.310Z,100719.50
2018-07-21T18:40:08.873Z,100722.52
2018-07-21T18:42:37.238Z,100722.55
2018-07-21T18:45:06.250Z,100721.19
2018-07-21T18:47:34.529Z,100722.70
2018-07-21T18:50:03.086Z,100721.40
2018-07-21T18:52:32.432Z,100720.92
2018-07-21T18:55:01.048Z,100723.81
2018-07-21T18:57:32.455Z,100727.61
2018-07-21T19:00:00.713Z,100734.64
2018-07-21T19:02:29.004Z,100736.48
2018-07-21T19:04:57.540Z,100740.91
2018-07-21T19:07:26.061Z,100745.05
2018-07-21T19:09:54.439Z,100751.22
2018-07-21T19:12:28.189Z,100760.02
2018-07-21T19:14:56.499Z,100752.45
2018-07-21T19:17:24.744Z,100760.87
2018-07-21T19:19:58.337Z,100757.99
2018-07-21T19:22:26.830Z,100755.23
2018-07-21T19:24:55.109Z,100752.45
2018-07-21T19:27:28.685Z,100759.39
2018-07-21T19:29:56.991Z,100753.77
2018-07-21T19:32:30.472Z,100747.24
2018-07-21T19:34:58.792Z,100746.67
2018-07-21T19:37:32.293Z,100746.23
2018-07-21T19:40:00.639Z,100749.41
2018-07-21T19:42:28.972Z,100754.34
2018-07-21T19:44:57.402Z,100762.16
2018-07-21T19:47:25.909Z,100767.48
2018-07-21T19:49:54.113Z,100767.00
2018-07-21T19:52:22.366Z,100770.53
2018-07-21T19:54:50.718Z,100773.87
2018-07-21T19:57:19.043Z,100776.80
2018-07-21T19:59:47.380Z,100781.88
2018-07-21T20:02:15.744Z,100774.06
2018-07-21T20:04:44.149Z,100773.65
2018-07-21T20:07:12.415Z,100774.47
2018-07-21T20:09:43.530Z,100784.22
2018-07-21T20:12:11.830Z,100782.27
2018-07-21T20:14:40.199Z,100780.51
2018-07-21T20:17:08.489Z,100778.52
2018-07-21T20:19:36.794Z,100783.90
2018-07-21T20:22:05.111Z,100783.13
2018-07-21T20:24:33.431Z,100782.77
2018-07-21T20:27:01.780Z,100780.08
2018-07-21T20:29:30.069Z,100785.03
2018-07-21T20:31:58.463Z,100786.50
2018-07-21T20:34:26.809Z,100785.78
2018-07-21T20:36:55.122Z,100788.63
2018-07-21T20:39:23.408Z,100785.94
2018-07-21T20:41:51.880Z,100782.27
2018-07-21T20:44:20.174Z,100783.09
2018-07-21T20:46:48.464Z,100789.04
2018-07-21T20:49:17.273Z,100790.70
2018-07-21T20:51:45.633Z,100786.56
2018-07-21T20:54:13.897Z,100787.80
2018-07-21T20:56:42.210Z,100783.73
2018-07-21T20:59:10.508Z,100792.31
2018-07-21T21:01:38.752Z,100784.42
2018-07-21T21:04:07.016Z,100791.89
2018-07-21T21:06:35.340Z,100791.88
2018-07-21T21:09:04.183Z,100793.70
2018-07-21T21:11:32.465Z,100792.01
2018-07-21T21:14:00.812Z,100788.49
2018-07-21T21:16:29.188Z,100793.39
2018-07-21T21:18:57.533Z,100795.20
2018-07-21T21:21:25.836Z,100795.41
2018-07-21T21:23:54.170Z,100790.08
2018-07-21T21:26:22.441Z,100794.15
2018-07-21T21:28:52.592Z,100794.80
2018-07-21T21:31:20.871Z,100791.86
2018-07-21T21:33:49.150Z,100791.15
2018-07-21T21:36:17.867Z,100791.80
2018-07-21T21:38:46.191Z,100788.34
2018-07-21T21:41:14.428Z,100793.98
2018-07-21T21:43:42.753Z,100787.50
2018-07-21T21:46:11.048Z,100794.78
2018-07-21T21:48:39.320Z,100791.27
2018-07-21T21:51:07.589Z,100796.25
2018-07-21T21:53:35.909Z,100785.95
2018-07-21T21:56:04.359Z,100787.95
2018-07-21T21:58:32.715Z,100789.88
2018-07-21T22:01:13.781Z,100789.29
2018-07-21T22:03:42.341Z,100792.51
2018-07-21T22:06:10.759Z,100791.89
2018-07-21T22:08:39.087Z,100798.75
2018-07-21T22:11:07.514Z,100790.69
2018-07-21T22:13:35.754Z,100788.86
2018-07-21T22:16:04.088Z,100790.69
2018-07-21T22:18:32.614Z,100789.86
2018-07-21T22:21:00.919Z,100790.76
2018-07-21T22:23:29.329Z,100791.73
2018-07-21T22:25:57.626Z,100797.02
2018-07-21T22:28:25.926Z,100797.46
2018-07-21T22:30:54.190Z,100800.89
2018-07-21T22:33:22.516Z,100798.58
2018-07-21T22:35:50.806Z,100806.94
2018-07-21T22:38:19.270Z,100812.02
2018-07-21T22:40:47.577Z,100806.84
2018-07-21T22:43:15.890Z,100803.58
2018-07-21T22:45:44.224Z,100809.36
2018-07-21T22:48:12.556Z,100810.30
2018-07-21T22:50:41.688Z,100814.86
2018-07-21T22:53:09.964Z,100808.94
2018-07-21T22:55:38.331Z,100811.69
2018-07-21T22:58:06.593Z,100813.97
2018-07-21T23:00:35.043Z,100817.36
2018-07-21T23:03:03.333Z,100819.42
2018-07-21T23:05:31.600Z,100817.87
2018-07-21T23:07:59.897Z,100819.61
2018-07-21T23:10:28.148Z,100815.97
2018-07-21T23:12:56.484Z,100816.20
2018-07-21T23:15:24.821Z,100818.80
2018-07-21T23:17:53.106Z,100817.48
2018-07-21T23:20:21.552Z,100821.17
2018-07-21T23:22:49.804Z,100823.97
2018-07-21T23:25:18.195Z,100823.97
2018-07-21T23:27:46.477Z,100829.89
2018-07-21T23:30:14.800Z,100829.89
2018-07-21T23:32:43.063Z,100835.20
2018-07-21T23:35:11.464Z,100836.58
2018-07-21T23:37:39.721Z,100839.99
2018-07-21T23:40:08.385Z,100834.28
2018-07-21T23:42:36.637Z,100839.78
2018-07-21T23:45:04.971Z,100844.84
2018-07-21T23:47:33.240Z,100847.93
2018-07-21T23:50:01.514Z,100845.37
2018-07-21T23:52:29.808Z,100843.17
2018-07-21T23:54:58.088Z,100847.88
2018-07-21T23:57:26.353Z,100851.81
2018-07-21T23:59:54.658Z,100850.69
